Time,TemperatureF,DewpointF,PressureIn,WindDirection,WindDirectionDegrees,WindSpeedMPH,WindSpeedGustMPH,Humidity,HourlyPrecipIn,Conditions,Clouds,dailyrainin,SoftwareType,DateUTC
2013-04-13 00:00:00,36.4,-15.1,29.80,East,90,1.8,5.1,1,0.01,,,0.00,WUHU216HW,2013-04-13 04:00:00,
2013-04-13 00:05:00,36.4,-15.1,29.80,ENE,68,3.8,7.8,1,0.01,,,0.00,WUHU216HW,2013-04-13 04:05:00,
2013-04-13 00:10:00,36.4,-15.1,29.80,NE,45,4.7,13.4,1,0.01,,,0.00,WUHU216HW,2013-04-13 04:10:00,
2013-04-13 00:15:00,36.4,-15.1,29.81,NNW,338,1.1,13.4,1,0.01,,,0.00,WUHU216HW,2013-04-13 04:15:00,
2013-04-13 00:20:00,36.4,-15.1,29.80,NNE,23,3.6,8.1,1,0.01,,,0.00,WUHU216HW,2013-04-13 04:20:00,
2013-04-13 00:25:00,36.4,-15.1,29.79,NE,45,7.2,8.1,1,0.01,,,0.00,WUHU216HW,2013-04-13 04:25:00,
2013-04-13 00:30:00,36.4,-15.1,29.80,ENE,68,5.4,7.8,1,0.01,,,0.00,WUHU216HW,2013-04-13 04:30:00,
2013-04-13 00:35:00,36.4,-15.1,29.81,ENE,68,4.9,8.3,1,0.02,,,0.00,WUHU216HW,2013-04-13 04:35:00,
2013-04-13 00:40:00,36.4,-15.1,29.81,NW,315,1.1,8.3,1,0.02,,,0.00,WUHU216HW,2013-04-13 04:40:00,
2013-04-13 00:45:00,36.4,-15.1,29.81,ENE,68,3.1,5.8,1,0.01,,,0.00,WUHU216HW,2013-04-13 04:45:00,
2013-04-13 00:50:00,36.4,-15.1,29.80,NNE,23,8.1,8.7,1,0.01,,,0.00,WUHU216HW,2013-04-13 04:50:00,
2013-04-13 00:55:00,36.4,-15.1,29.79,NNE,23,4.0,8.7,1,0.01,,,0.00,WUHU216HW,2013-04-13 04:55:00,
2013-04-13 01:00:00,36.4,-15.1,29.79,NE,45,2.7,8.1,1,0.01,,,0.00,WUHU216HW,2013-04-13 05:00:00,
2013-04-13 01:05:00,36.4,-15.1,29.79,NE,45,5.8,7.6,1,0.01,,,0.00,WUHU216HW,2013-04-13 05:05:00,
2013-04-13 01:10:00,36.2,-15.2,29.78,NE,45,5.4,7.6,1,0.01,,,0.00,WUHU216HW,2013-04-13 05:10:00,
2013-04-13 01:15:00,36.2,-15.2,29.79,North,0,5.8,6.5,1,0.01,,,0.00,WUHU216HW,2013-04-13 05:15:00,
2013-04-13 01:20:00,36.2,-15.2,29.80,North,0,2.9,6.0,1,0.02,,,0.02,WUHU216HW,2013-04-13 05:20:00,
2013-04-13 01:25:00,36.2,-15.2,29.80,NE,45,4.0,6.9,1,0.02,,,0.02,WUHU216HW,2013-04-13 05:25:00,
2013-04-13 01:30:00,36.2,-15.2,29.80,NE,45,5.4,6.9,1,0.01,,,0.02,WUHU216HW,2013-04-13 05:30:00,
2013-04-13 01:35:00,36.2,-15.2,29.80,NW,315,1.6,7.6,1,0.01,,,0.02,WUHU216HW,2013-04-13 05:35:00,
2013-04-13 01:40:00,36.0,-15.4,29.80,West,270,2.5,7.6,1,0.01,,,0.02,WUHU216HW,2013-04-13 05:40:00,
2013-04-13 01:45:00,36.0,-15.4,29.80,NW,315,1.8,5.6,1,0.01,,,0.02,WUHU216HW,2013-04-13 05:45:00,
2013-04-13 01:50:00,35.8,-15.5,29.80,NNW,338,4.0,4.3,1,0.01,,,0.02,WUHU216HW,2013-04-13 05:50:00,
2013-04-13 01:55:00,35.6,-15.7,29.80,NNW,338,1.8,5.4,1,0.01,,,0.02,WUHU216HW,2013-04-13 05:55:00,
2013-04-13 02:00:00,35.3,-15.9,29.79,WNW,293,4.0,6.3,1,0.01,,,0.02,WUHU216HW,2013-04-13 06:00:00,
2013-04-13 02:05:00,35.1,-16.1,29.80,NW,315,2.5,9.8,1,0.01,,,0.02,WUHU216HW,2013-04-13 06:05:00,
2013-04-13 02:10:00,34.9,-16.2,29.80,NNW,338,2.5,9.8,1,0.02,,,0.03,WUHU216HW,2013-04-13 06:10:00,
2013-04-13 02:15:00,34.9,-16.2,29.79,NNE,23,1.8,4.7,1,0.02,,,0.03,WUHU216HW,2013-04-13 06:15:00,
2013-04-13 02:20:00,34.7,-16.4,29.77,NNW,338,4.7,9.6,1,0.01,,,0.03,WUHU216HW,2013-04-13 06:20:00,
2013-04-13 02:25:00,34.6,-16.6,29.78,NNW,338,5.6,9.6,1,0.01,,,0.03,WUHU216HW,2013-04-13 06:25:00,
2013-04-13 02:30:00,34.6,-16.6,29.77,NNE,23,3.8,5.6,1,0.01,,,0.03,WUHU216HW,2013-04-13 06:30:00,
2013-04-13 02:35:00,34.4,-16.6,29.78,NNW,338,7.8,7.8,1,0.01,,,0.03,WUHU216HW,2013-04-13 06:35:00,
2013-04-13 02:40:00,34.4,-16.6,29.79,NW,315,1.8,7.8,1,0.01,,,0.03,WUHU216HW,2013-04-13 06:40:00,
2013-04-13 02:45:00,34.4,-16.6,29.80,NNE,23,1.1,7.8,1,0.02,,,0.04,WUHU216HW,2013-04-13 06:45:00,
2013-04-13 02:50:00,34.4,-16.6,29.81,NNW,338,1.8,2.9,1,0.02,,,0.04,WUHU216HW,2013-04-13 06:50:00,
2013-04-13 02:55:00,34.4,-16.6,29.81,NNW,338,2.9,4.0,1,0.02,,,0.04,WUHU216HW,2013-04-13 06:55:00,
2013-04-13 03:00:00,34.4,-16.6,29.83,NW,315,4.0,4.0,1,0.02,,,0.04,WUHU216HW,2013-04-13 07:00:00,
2013-04-13 03:05:00,34.4,-16.6,29.83,NW,315,5.1,5.1,1,0.02,,,0.04,WUHU216HW,2013-04-13 07:05:00,
2013-04-13 03:10:00,34.4,-16.6,29.81,North,0,0.4,5.1,1,0.02,,,0.05,WUHU216HW,2013-04-13 07:10:00,
2013-04-13 03:15:00,34.2,-16.8,29.80,North,0,2.0,2.9,1,0.04,,,0.07,WUHU216HW,2013-04-13 07:15:00,
2013-04-13 03:20:00,34.2,-16.8,29.78,NNE,23,4.0,6.0,1,0.05,,,0.08,WUHU216HW,2013-04-13 07:20:00,
2013-04-13 03:25:00,34.0,-16.9,29.77,NE,45,4.7,6.0,1,0.06,,,0.09,WUHU216HW,2013-04-13 07:25:00,
2013-04-13 03:30:00,33.8,-17.1,29.78,NW,315,1.6,5.4,1,0.06,,,0.09,WUHU216HW,2013-04-13 07:30:00,
2013-04-13 03:35:00,33.8,-17.1,29.77,NW,315,3.4,6.7,1,0.06,,,0.09,WUHU216HW,2013-04-13 07:35:00,
2013-04-13 03:41:00,33.7,-17.2,29.77,NNE,23,5.4,6.7,1,0.06,,,0.09,WUHU216HW,2013-04-13 07:41:00,
2013-04-13 03:45:00,33.7,-17.2,29.78,NNW,338,6.9,6.9,1,0.05,,,0.09,WUHU216HW,2013-04-13 07:45:00,
2013-04-13 03:51:00,33.7,-17.2,29.78,NNE,23,2.2,6.9,1,0.05,,,0.09,WUHU216HW,2013-04-13 07:51:00,
2013-04-13 03:56:00,33.8,-17.1,29.77,NE,45,1.1,6.9,1,0.06,,,0.10,WUHU216HW,2013-04-13 07:56:00,
2013-04-13 04:01:00,33.8,-17.1,29.78,NNW,338,4.7,5.4,1,0.06,,,0.10,WUHU216HW,2013-04-13 08:01:00,
2013-04-13 04:06:00,33.8,-17.1,29.77,NNW,338,3.6,7.6,1,0.06,,,0.10,WUHU216HW,2013-04-13 08:06:00,
2013-04-13 04:11:00,33.8,-17.1,29.74,ENE,68,4.5,8.3,1,0.04,,,0.10,WUHU216HW,2013-04-13 08:11:00,
2013-04-13 04:17:00,33.7,-17.2,29.75,North,0,3.1,10.5,1,0.03,,,0.11,WUHU216HW,2013-04-13 08:17:00,
2013-04-13 04:22:00,33.7,-17.2,29.73,NNE,23,5.1,10.5,1,0.03,,,0.11,WUHU216HW,2013-04-13 08:22:00,
2013-04-13 04:27:00,33.7,-17.2,29.74,North,0,2.5,8.5,1,0.02,,,0.11,WUHU216HW,2013-04-13 08:27:00,
2013-04-13 04:32:00,33.7,-17.2,29.75,NE,45,1.1,8.5,1,0.02,,,0.11,WUHU216HW,2013-04-13 08:32:00,
2013-04-13 04:37:00,33.7,-17.2,29.76,NW,315,1.6,4.7,1,0.02,,,0.11,WUHU216HW,2013-04-13 08:37:00,
2013-04-13 04:42:00,33.8,-17.1,29.76,East,90,1.8,7.8,1,0.02,,,0.11,WUHU216HW,2013-04-13 08:42:00,
2013-04-13 04:47:00,33.8,-17.1,29.76,NNW,338,4.0,6.0,1,0.02,,,0.11,WUHU216HW,2013-04-13 08:47:00,
2013-04-13 04:52:00,33.8,-17.1,29.76,North,0,1.6,6.0,1,0.02,,,0.11,WUHU216HW,2013-04-13 08:52:00,
2013-04-13 04:57:00,33.8,-17.1,29.76,NW,315,2.7,4.0,1,0.01,,,0.11,WUHU216HW,2013-04-13 08:57:00,
2013-04-13 05:02:00,33.8,-17.1,29.77,NNW,338,1.8,3.6,1,0.01,,,0.11,WUHU216HW,2013-04-13 09:02:00,
2013-04-13 05:07:00,33.8,-17.1,29.77,NW,315,1.8,4.0,1,0.01,,,0.11,WUHU216HW,2013-04-13 09:07:00,
2013-04-13 05:12:00,33.8,-17.1,29.77,WNW,293,2.7,4.0,1,0.00,,,0.11,WUHU216HW,2013-04-13 09:12:00,
2013-04-13 05:17:00,33.8,-17.1,29.78,WNW,293,4.0,5.8,1,0.00,,,0.11,WUHU216HW,2013-04-13 09:17:00,
2013-04-13 05:22:00,33.8,-17.1,29.78,NW,315,3.8,5.8,1,0.00,,,0.11,WUHU216HW,2013-04-13 09:22:00,
2013-04-13 05:27:00,33.8,-17.1,29.78,NNW,338,2.5,4.0,1,0.00,,,0.11,WUHU216HW,2013-04-13 09:27:00,
2013-04-13 05:32:00,33.8,-17.1,29.78,WNW,293,3.1,4.3,1,0.00,,,0.11,WUHU216HW,2013-04-13 09:32:00,
2013-04-13 05:37:00,33.7,-17.2,29.77,West,270,2.9,4.3,1,0.00,,,0.11,WUHU216HW,2013-04-13 09:37:00,
2013-04-13 05:42:00,33.7,-17.2,29.78,NW,315,2.5,7.4,1,0.00,,,0.11,WUHU216HW,2013-04-13 09:42:00,
2013-04-13 05:47:00,33.7,-17.2,29.78,NW,315,3.4,7.4,1,0.00,,,0.11,WUHU216HW,2013-04-13 09:47:00,
2013-04-13 05:52:00,33.7,-17.2,29.78,NNW,338,1.1,4.7,1,0.00,,,0.11,WUHU216HW,2013-04-13 09:52:00,
2013-04-13 05:57:00,33.7,-17.2,29.78,NNW,338,1.1,4.7,1,0.00,,,0.11,WUHU216HW,2013-04-13 09:57:00,
2013-04-13 06:02:00,33.7,-17.2,29.78,NNW,338,3.6,4.0,1,0.00,,,0.11,WUHU216HW,2013-04-13 10:02:00,
2013-04-13 06:07:00,33.7,-17.2,29.79,WNW,293,1.6,4.0,1,0.00,,,0.11,WUHU216HW,2013-04-13 10:07:00,
2013-04-13 06:13:00,33.7,-17.2,29.79,NNW,338,2.0,4.7,1,0.01,,,0.12,WUHU216HW,2013-04-13 10:13:00,
2013-04-13 06:18:00,33.7,-17.2,29.79,West,270,3.4,4.7,1,0.01,,,0.12,WUHU216HW,2013-04-13 10:18:00,
2013-04-13 06:23:00,33.7,-17.2,29.79,NW,315,3.4,3.4,1,0.01,,,0.12,WUHU216HW,2013-04-13 10:23:00,
2013-04-13 06:28:00,33.7,-17.2,29.79,WNW,293,1.8,3.4,1,0.01,,,0.12,WUHU216HW,2013-04-13 10:28:00,
2013-04-13 06:33:00,33.8,-17.1,29.79,WNW,293,2.7,3.4,1,0.01,,,0.12,WUHU216HW,2013-04-13 10:33:00,
2013-04-13 06:38:00,33.8,-17.1,29.80,NW,315,2.5,3.1,1,0.01,,,0.12,WUHU216HW,2013-04-13 10:38:00,
2013-04-13 06:43:00,33.8,-17.1,29.80,NNW,338,0.9,4.0,1,0.01,,,0.12,WUHU216HW,2013-04-13 10:43:00,
2013-04-13 06:48:00,34.0,-16.9,29.80,SW,225,2.0,4.0,1,0.01,,,0.12,WUHU216HW,2013-04-13 10:48:00,
2013-04-13 06:53:00,34.0,-16.9,29.79,West,270,3.1,3.1,1,0.01,,,0.12,WUHU216HW,2013-04-13 10:53:00,
2013-04-13 06:58:00,34.2,-16.8,29.80,North,0,0.9,3.1,1,0.01,,,0.12,WUHU216HW,2013-04-13 10:58:00,
2013-04-13 07:03:00,34.4,-16.6,29.80,NNW,338,1.3,3.1,1,0.01,,,0.12,WUHU216HW,2013-04-13 11:03:00,
2013-04-13 07:08:00,34.4,-16.6,29.80,NW,315,0.9,2.2,1,0.01,,,0.12,WUHU216HW,2013-04-13 11:08:00,
2013-04-13 07:13:00,34.6,-16.6,29.80,NW,315,0.4,2.2,1,0.00,,,0.12,WUHU216HW,2013-04-13 11:13:00,
2013-04-13 07:18:00,34.9,-16.2,29.80,WNW,293,0.9,3.6,1,0.00,,,0.12,WUHU216HW,2013-04-13 11:18:00,
2013-04-13 07:23:00,34.9,-16.2,29.81,WNW,293,2.0,3.6,1,0.00,,,0.12,WUHU216HW,2013-04-13 11:23:00,
2013-04-13 07:28:00,35.1,-16.1,29.81,NW,315,2.0,2.5,1,0.00,,,0.12,WUHU216HW,2013-04-13 11:28:00,
2013-04-13 07:33:00,35.1,-16.1,29.82,WNW,293,2.9,4.5,1,0.00,,,0.12,WUHU216HW,2013-04-13 11:33:00,
2013-04-13 07:38:00,35.1,-16.1,29.82,NW,315,1.1,4.5,1,0.00,,,0.12,WUHU216HW,2013-04-13 11:38:00,
2013-04-13 07:43:00,35.3,-15.9,29.81,NW,315,2.0,2.5,1,0.00,,,0.12,WUHU216HW,2013-04-13 11:43:00,
2013-04-13 07:48:00,35.3,-15.9,29.81,North,0,1.8,2.2,1,0.00,,,0.12,WUHU216HW,2013-04-13 11:48:00,
2013-04-13 07:54:00,35.5,-15.8,29.81,WNW,293,1.1,4.7,1,0.00,,,0.12,WUHU216HW,2013-04-13 11:54:00,
2013-04-13 07:59:00,35.3,-15.9,29.81,WNW,293,3.1,4.7,1,0.00,,,0.12,WUHU216HW,2013-04-13 11:59:00,
2013-04-13 08:04:00,35.5,-15.8,29.81,WNW,293,1.1,4.0,1,0.00,,,0.12,WUHU216HW,2013-04-13 12:04:00,
2013-04-13 08:09:00,35.6,-15.7,29.81,NNW,338,1.3,4.0,1,0.00,,,0.12,WUHU216HW,2013-04-13 12:09:00,
2013-04-13 08:14:00,36.0,-15.4,29.81,WNW,293,1.6,4.0,1,0.01,,,0.13,WUHU216HW,2013-04-13 12:14:00,
2013-04-13 08:19:00,36.2,-15.2,29.81,NW,315,1.8,2.7,1,0.01,,,0.13,WUHU216HW,2013-04-13 12:19:00,
2013-04-13 08:24:00,36.4,-15.1,29.81,NW,315,2.7,4.0,1,0.01,,,0.13,WUHU216HW,2013-04-13 12:24:00,
2013-04-13 08:29:00,36.4,-15.1,29.81,NNW,338,1.8,4.0,1,0.01,,,0.13,WUHU216HW,2013-04-13 12:29:00,
2013-04-13 08:34:00,36.4,-15.1,29.81,NNW,338,4.3,4.3,1,0.01,,,0.13,WUHU216HW,2013-04-13 12:34:00,
2013-04-13 08:39:00,36.5,-14.9,29.81,NW,315,2.7,4.3,1,0.01,,,0.13,WUHU216HW,2013-04-13 12:39:00,
2013-04-13 08:44:00,36.7,-14.7,29.81,NNW,338,3.1,4.3,1,0.01,,,0.13,WUHU216HW,2013-04-13 12:44:00,
2013-04-13 08:49:00,36.7,-14.7,29.81,WNW,293,2.7,3.6,1,0.01,,,0.13,WUHU216HW,2013-04-13 12:49:00,
2013-04-13 08:54:00,36.9,-14.7,29.81,WNW,293,1.8,5.4,1,0.01,,,0.13,WUHU216HW,2013-04-13 12:54:00,
2013-04-13 08:59:00,37.1,-14.5,29.81,West,270,1.3,5.4,1,0.01,,,0.13,WUHU216HW,2013-04-13 12:59:00,
2013-04-13 09:04:00,37.1,-14.5,29.81,WNW,293,1.1,3.8,1,0.01,,,0.13,WUHU216HW,2013-04-13 13:04:00,
2013-04-13 09:09:00,37.4,-14.2,29.81,WNW,293,0.9,2.9,1,0.00,,,0.13,WUHU216HW,2013-04-13 13:09:00,
2013-04-13 09:14:00,37.8,-13.9,29.80,WSW,248,4.3,4.3,1,0.00,,,0.13,WUHU216HW,2013-04-13 13:14:00,
2013-04-13 09:19:00,38.0,-13.8,29.80,NNW,338,3.4,4.7,1,0.00,,,0.13,WUHU216HW,2013-04-13 13:19:00,
2013-04-13 09:24:00,38.0,-13.8,29.80,WNW,293,3.6,4.7,1,0.00,,,0.13,WUHU216HW,2013-04-13 13:24:00,
2013-04-13 09:30:00,38.2,-13.7,29.80,NNW,338,1.1,4.7,1,0.00,,,0.13,WUHU216HW,2013-04-13 13:30:00,
2013-04-13 09:35:00,38.3,-13.5,29.80,WNW,293,2.7,3.8,1,0.00,,,0.13,WUHU216HW,2013-04-13 13:35:00,
2013-04-13 09:40:00,38.5,-13.3,29.81,NNW,338,2.5,3.8,1,0.00,,,0.13,WUHU216HW,2013-04-13 13:40:00,
2013-04-13 09:45:00,38.5,-13.3,29.80,NW,315,1.6,3.6,1,0.00,,,0.13,WUHU216HW,2013-04-13 13:45:00,
2013-04-13 09:50:00,38.5,-13.3,29.81,WNW,293,1.6,2.5,1,0.00,,,0.13,WUHU216HW,2013-04-13 13:50:00,
2013-04-13 09:55:00,38.9,-13.0,29.81,NNW,338,2.2,4.0,1,0.00,,,0.13,WUHU216HW,2013-04-13 13:55:00,
2013-04-13 10:00:00,39.1,-13.0,29.81,North,0,0.4,4.0,1,0.00,,,0.13,WUHU216HW,2013-04-13 14:00:00,
2013-04-13 10:05:00,39.1,-13.0,29.81,ESE,113,1.1,2.2,1,0.00,,,0.13,WUHU216HW,2013-04-13 14:05:00,
2013-04-13 10:11:00,38.9,-13.0,29.82,North,0,1.3,1.8,1,0.00,,,0.13,WUHU216HW,2013-04-13 14:11:00,
2013-04-13 10:16:00,38.7,-13.2,29.82,WNW,293,3.1,3.1,1,0.00,,,0.13,WUHU216HW,2013-04-13 14:16:00,
2013-04-13 10:21:00,38.9,-13.0,29.82,WNW,293,1.3,4.0,1,0.00,,,0.13,WUHU216HW,2013-04-13 14:21:00,
2013-04-13 10:26:00,39.1,-13.0,29.82,NE,45,0.2,4.0,1,0.00,,,0.13,WUHU216HW,2013-04-13 14:26:00,
2013-04-13 10:31:00,39.2,-12.8,29.82,WSW,248,0.9,2.9,1,0.00,,,0.13,WUHU216HW,2013-04-13 14:31:00,
2013-04-13 10:36:00,39.8,-12.3,29.82,WNW,293,3.6,3.6,1,0.00,,,0.13,WUHU216HW,2013-04-13 14:36:00,
2013-04-13 10:41:00,40.5,-11.8,29.81,NW,315,4.3,4.3,1,0.00,,,0.13,WUHU216HW,2013-04-13 14:41:00,
2013-04-13 10:46:00,40.7,-11.6,29.81,WSW,248,2.0,4.3,1,0.00,,,0.13,WUHU216HW,2013-04-13 14:46:00,
2013-04-13 10:51:00,41.2,-11.2,29.81,North,0,1.1,4.3,1,0.00,,,0.13,WUHU216HW,2013-04-13 14:51:00,
2013-04-13 10:56:00,41.6,-11.0,29.81,WSW,248,2.5,3.4,1,0.00,,,0.13,WUHU216HW,2013-04-13 14:56:00,
2013-04-13 11:00:00,41.9,-10.7,29.81,NNW,338,2.0,6.0,1,0.00,,,0.13,WUHU216HW,2013-04-13 15:00:00,
2013-04-13 11:05:00,42.3,-10.4,29.81,South,180,3.4,6.0,1,0.00,,,0.13,WUHU216HW,2013-04-13 15:05:00,
2013-04-13 11:10:00,42.5,-10.3,29.81,West,270,5.6,5.6,1,0.00,,,0.13,WUHU216HW,2013-04-13 15:10:00,
2013-04-13 11:15:00,42.7,-10.2,29.82,NNW,338,2.7,5.6,1,0.00,,,0.13,WUHU216HW,2013-04-13 15:15:00,
2013-04-13 11:20:00,42.8,-10.1,29.82,SW,225,1.3,5.6,1,0.00,,,0.13,WUHU216HW,2013-04-13 15:20:00,
2013-04-13 11:25:00,42.8,-10.1,29.81,South,180,1.1,4.0,1,0.00,,,0.13,WUHU216HW,2013-04-13 15:25:00,
2013-04-13 11:31:00,43.0,-9.9,29.82,SW,225,0.4,4.0,1,0.00,,,0.13,WUHU216HW,2013-04-13 15:31:00,
2013-04-13 11:36:00,43.6,-9.5,29.81,ESE,113,3.4,3.6,1,0.00,,,0.13,WUHU216HW,2013-04-13 15:36:00,
2013-04-13 11:41:00,43.9,-9.2,29.81,ENE,68,1.3,3.6,1,0.00,,,0.13,WUHU216HW,2013-04-13 15:41:00,
2013-04-13 11:47:00,44.1,-9.1,29.82,NW,315,1.8,4.7,1,0.00,,,0.13,WUHU216HW,2013-04-13 15:47:00,
2013-04-13 11:52:00,44.3,-8.9,29.82,SW,225,1.1,4.7,1,0.00,,,0.13,WUHU216HW,2013-04-13 15:52:00,
2013-04-13 11:57:00,45.2,-8.2,29.82,NNW,338,2.2,2.7,1,0.00,,,0.13,WUHU216HW,2013-04-13 15:57:00,
2013-04-13 12:02:00,46.1,-7.5,29.81,North,0,0.0,2.2,1,0.00,,,0.13,WUHU216HW,2013-04-13 16:02:00,
2013-04-13 12:07:00,47.0,-6.7,29.82,North,0,0.0,2.2,1,0.00,,,0.13,WUHU216HW,2013-04-13 16:07:00,
2013-04-13 12:12:00,47.5,-6.3,29.81,North,0,0.0,0.0,1,0.00,,,0.13,WUHU216HW,2013-04-13 16:12:00,
2013-04-13 12:17:00,48.2,-5.8,29.82,North,0,0.0,0.0,1,0.00,,,0.13,WUHU216HW,2013-04-13 16:17:00,
2013-04-13 12:22:00,48.1,-5.9,29.81,North,0,0.0,0.0,1,0.00,,,0.13,WUHU216HW,2013-04-13 16:22:00,
2013-04-13 12:28:00,47.9,-6.0,29.81,North,0,0.0,0.0,1,0.00,,,0.13,WUHU216HW,2013-04-13 16:28:00,
2013-04-13 12:33:00,48.1,-5.9,29.81,North,0,0.0,0.0,1,0.00,,,0.13,WUHU216HW,2013-04-13 16:33:00,
2013-04-13 12:38:00,48.4,-5.7,29.80,North,0,0.0,0.0,1,0.00,,,0.13,WUHU216HW,2013-04-13 16:38:00,
2013-04-13 12:43:00,49.0,-5.2,29.81,North,0,0.0,0.0,1,0.00,,,0.13,WUHU216HW,2013-04-13 16:43:00,
2013-04-13 12:48:00,49.0,-5.2,29.80,North,0,0.0,0.0,1,0.00,,,0.13,WUHU216HW,2013-04-13 16:48:00,
2013-04-13 12:53:00,49.0,-5.2,29.80,North,0,0.0,0.0,1,0.00,,,0.13,WUHU216HW,2013-04-13 16:53:00,
2013-04-13 12:58:00,49.1,-5.1,29.80,North,0,0.0,0.0,1,0.00,,,0.13,WUHU216HW,2013-04-13 16:58:00,
2013-04-13 13:03:00,49.3,-5.0,29.81,North,0,0.0,0.0,1,0.00,,,0.13,WUHU216HW,2013-04-13 17:03:00,
2013-04-13 13:08:00,49.9,-4.6,29.80,North,0,0.0,0.0,1,0.00,,,0.13,WUHU216HW,2013-04-13 17:08:00,
2013-04-13 13:13:00,50.0,-3.0,29.80,North,0,0.0,0.0,11,0.00,,,0.13,WUHU216HW,2013-04-13 17:13:00,
2013-04-13 13:18:00,50.0,-4.5,29.80,North,0,0.0,0.0,5,0.00,,,0.13,WUHU216HW,2013-04-13 17:18:00,
2013-04-13 13:23:00,50.6,-4.0,29.79,North,0,0.0,0.0,5,0.00,,,0.13,WUHU216HW,2013-04-13 17:23:00,
2013-04-13 13:28:00,50.6,-2.5,29.79,North,0,0.0,0.0,11,0.00,,,0.13,WUHU216HW,2013-04-13 17:28:00,
2013-04-13 13:33:00,50.4,1.8,29.79,North,0,0.0,0.0,14,0.00,,,0.13,WUHU216HW,2013-04-13 17:33:00,
2013-04-13 13:38:00,51.1,5.4,29.79,North,0,0.0,0.0,16,0.00,,,0.13,WUHU216HW,2013-04-13 17:38:00,
2013-04-13 13:43:00,51.5,5.8,29.79,North,0,0.0,0.0,16,0.00,,,0.13,WUHU216HW,2013-04-13 17:43:00,
2013-04-13 13:48:00,51.1,11.5,29.78,North,0,0.0,0.0,20,0.00,,,0.13,WUHU216HW,2013-04-13 17:48:00,
2013-04-13 13:53:00,51.3,7.1,29.78,North,0,0.0,0.0,17,0.00,,,0.13,WUHU216HW,2013-04-13 17:53:00,
2013-04-13 13:58:00,51.8,12.1,29.78,North,0,0.0,0.0,20,0.00,,,0.13,WUHU216HW,2013-04-13 17:58:00,
2013-04-13 14:03:00,52.4,3.4,29.78,North,0,0.0,0.0,14,0.00,,,0.13,WUHU216HW,2013-04-13 18:03:00,
2013-04-13 14:08:00,52.4,13.4,29.78,North,0,0.0,0.0,21,0.00,,,0.13,WUHU216HW,2013-04-13 18:08:00,
2013-04-13 14:13:00,52.0,15.9,29.77,North,0,0.0,0.0,24,0.00,,,0.13,WUHU216HW,2013-04-13 18:13:00,
2013-04-13 14:18:00,51.5,15.5,29.78,North,0,0.0,0.0,24,0.00,,,0.13,WUHU216HW,2013-04-13 18:18:00,
2013-04-13 14:24:00,51.5,12.7,29.77,North,0,0.0,0.0,21,0.00,,,0.13,WUHU216HW,2013-04-13 18:24:00,
2013-04-13 14:27:00,51.3,13.5,29.77,North,0,0.0,0.0,22,0.00,,,0.13,WUHU216HW,2013-04-13 18:27:00,
2013-04-13 14:32:00,51.5,14.6,29.78,North,0,0.0,0.0,23,0.00,,,0.13,WUHU216HW,2013-04-13 18:32:00,
2013-04-13 14:37:00,51.3,16.3,29.78,WSW,248,4.3,5.1,25,0.00,,,0.13,WUHU216HW,2013-04-13 18:37:00,
2013-04-13 14:42:00,51.7,12.9,29.78,West,270,3.6,6.9,21,0.00,,,0.13,WUHU216HW,2013-04-13 18:42:00,
2013-04-13 14:47:00,51.8,14.9,29.78,ENE,68,2.7,8.7,23,0.00,,,0.13,WUHU216HW,2013-04-13 18:47:00,
2013-04-13 14:52:00,51.8,20.5,29.78,West,270,6.5,8.7,29,0.00,,,0.13,WUHU216HW,2013-04-13 18:52:00,
2013-04-13 14:57:00,52.0,18.8,29.78,WSW,248,2.2,6.9,27,0.00,,,0.13,WUHU216HW,2013-04-13 18:57:00,
2013-04-13 15:02:00,52.4,19.1,29.77,NNW,338,3.8,7.2,27,0.00,,,0.13,WUHU216HW,2013-04-13 19:02:00,
2013-04-13 15:07:00,52.6,22.8,29.77,West,270,6.9,7.2,31,0.00,,,0.13,WUHU216HW,2013-04-13 19:07:00,
2013-04-13 15:12:00,52.6,22.8,29.77,West,270,7.8,8.5,31,0.00,,,0.13,WUHU216HW,2013-04-13 19:12:00,
2013-04-13 15:17:00,52.2,22.4,29.77,WNW,293,3.8,8.5,31,0.00,,,0.13,WUHU216HW,2013-04-13 19:17:00,
2013-04-13 15:22:00,52.2,20.8,29.77,NNW,338,3.4,7.8,29,0.00,,,0.13,WUHU216HW,2013-04-13 19:22:00,
2013-04-13 15:27:00,52.0,25.0,29.77,NW,315,5.1,5.1,35,0.00,,,0.13,WUHU216HW,2013-04-13 19:27:00,
2013-04-13 15:32:00,51.7,23.3,29.77,WNW,293,3.8,6.5,33,0.00,,,0.13,WUHU216HW,2013-04-13 19:32:00,
2013-04-13 15:37:00,51.5,21.1,29.77,WNW,293,3.4,6.5,30,0.00,,,0.13,WUHU216HW,2013-04-13 19:37:00,
2013-04-13 15:42:00,51.3,20.0,29.77,West,270,3.4,5.6,29,0.00,,,0.13,WUHU216HW,2013-04-13 19:42:00,
2013-04-13 15:47:00,50.9,20.6,29.77,WSW,248,6.0,6.0,30,0.00,,,0.13,WUHU216HW,2013-04-13 19:47:00,
2013-04-13 15:52:00,50.8,21.2,29.78,NW,315,2.5,6.0,31,0.00,,,0.13,WUHU216HW,2013-04-13 19:52:00,
2013-04-13 15:57:00,50.8,18.6,29.77,WNW,293,2.5,6.0,28,0.00,,,0.13,WUHU216HW,2013-04-13 19:57:00,
2013-04-13 16:02:00,50.9,16.0,29.78,WSW,248,4.5,4.5,25,0.00,,,0.13,WUHU216HW,2013-04-13 20:02:00,
2013-04-13 16:07:00,50.9,16.0,29.78,WSW,248,2.5,4.5,25,0.00,,,0.13,WUHU216HW,2013-04-13 20:07:00,
2013-04-13 16:12:00,50.8,17.6,29.77,NNW,338,2.0,4.5,27,0.00,,,0.13,WUHU216HW,2013-04-13 20:12:00,
2013-04-13 16:17:00,50.8,17.6,29.78,West,270,0.9,3.4,27,0.00,,,0.13,WUHU216HW,2013-04-13 20:17:00,
2013-04-13 16:22:00,50.8,15.9,29.77,WSW,248,0.0,2.7,25,0.00,,,0.13,WUHU216HW,2013-04-13 20:22:00,
2013-04-13 16:27:00,51.3,13.5,29.77,SW,225,0.9,0.9,22,0.00,,,0.13,WUHU216HW,2013-04-13 20:27:00,
2013-04-13 16:32:00,51.8,13.0,29.78,North,0,0.7,0.9,21,0.00,,,0.13,WUHU216HW,2013-04-13 20:32:00,
2013-04-13 16:37:00,52.4,14.4,29.77,East,90,0.7,1.3,22,0.00,,,0.13,WUHU216HW,2013-04-13 20:37:00,
2013-04-13 16:42:00,52.4,14.4,29.78,ESE,113,1.8,1.8,22,0.00,,,0.13,WUHU216HW,2013-04-13 20:42:00,
2013-04-13 16:47:00,52.2,16.1,29.78,SE,135,0.2,1.8,24,0.00,,,0.13,WUHU216HW,2013-04-13 20:47:00,
2013-04-13 16:52:00,52.2,14.2,29.78,West,270,0.4,1.8,22,0.00,,,0.13,WUHU216HW,2013-04-13 20:52:00,
2013-04-13 16:57:00,52.2,13.3,29.78,NE,45,0.9,0.9,21,0.00,,,0.13,WUHU216HW,2013-04-13 20:57:00,
2013-04-13 17:02:00,51.5,18.3,29.79,NNW,338,1.1,1.1,27,0.00,,,0.13,WUHU216HW,2013-04-13 21:02:00,
2013-04-13 17:07:00,50.9,19.7,29.79,North,0,0.7,1.8,29,0.00,,,0.13,WUHU216HW,2013-04-13 21:07:00,
2013-04-13 17:12:00,50.9,17.8,29.79,ENE,68,0.4,1.8,27,0.00,,,0.13,WUHU216HW,2013-04-13 21:12:00,
2013-04-13 17:17:00,52.0,18.8,29.79,NE,45,2.9,3.1,27,0.00,,,0.13,WUHU216HW,2013-04-13 21:17:00,
2013-04-13 17:22:00,52.9,20.5,29.79,WSW,248,0.4,3.1,28,0.00,,,0.13,WUHU216HW,2013-04-13 21:22:00,
2013-04-13 17:27:00,53.1,20.7,29.80,WNW,293,0.0,2.9,28,0.00,,,0.13,WUHU216HW,2013-04-13 21:27:00,
2013-04-13 17:32:00,53.5,21.0,29.80,SE,135,3.4,3.4,28,0.00,,,0.13,WUHU216HW,2013-04-13 21:32:00,
2013-04-13 17:37:00,53.6,22.1,29.81,SSE,158,1.8,3.4,29,0.00,,,0.13,WUHU216HW,2013-04-13 21:37:00,
2013-04-13 17:42:00,53.1,21.6,29.81,SW,225,2.5,3.4,29,0.00,,,0.13,WUHU216HW,2013-04-13 21:42:00,
2013-04-13 17:47:00,52.0,22.2,29.81,NW,315,1.1,2.5,31,0.00,,,0.13,WUHU216HW,2013-04-13 21:47:00,
2013-04-13 17:52:00,51.7,21.2,29.81,South,180,0.9,2.5,30,0.00,,,0.13,WUHU216HW,2013-04-13 21:52:00,
2013-04-13 17:57:00,51.3,20.0,29.81,SW,225,0.2,1.8,29,0.00,,,0.13,WUHU216HW,2013-04-13 21:57:00,
2013-04-13 18:02:00,51.1,18.9,29.81,SW,225,0.9,1.8,28,0.00,,,0.13,WUHU216HW,2013-04-13 22:02:00,
2013-04-13 18:07:00,50.9,17.8,29.81,South,180,0.9,0.9,27,0.00,,,0.13,WUHU216HW,2013-04-13 22:07:00,
2013-04-13 18:12:00,50.9,16.0,29.81,South,180,0.9,1.1,25,0.00,,,0.13,WUHU216HW,2013-04-13 22:12:00,
2013-04-13 18:17:00,50.8,15.0,29.82,SE,135,2.0,2.0,24,0.00,,,0.13,WUHU216HW,2013-04-13 22:17:00,
2013-04-13 18:22:00,50.8,8.2,29.82,East,90,5.6,7.4,18,0.00,,,0.13,WUHU216HW,2013-04-13 22:22:00,
2013-04-13 18:27:00,49.7,4.3,29.82,ESE,113,3.1,7.4,16,0.00,,,0.13,WUHU216HW,2013-04-13 22:27:00,
2013-04-13 18:32:00,49.3,-2.0,29.82,East,90,4.5,5.6,12,0.00,,,0.13,WUHU216HW,2013-04-13 22:32:00,
2013-04-13 18:37:00,48.8,-5.4,29.82,SE,135,2.5,4.5,8,0.00,,,0.13,WUHU216HW,2013-04-13 22:37:00,
2013-04-13 18:42:00,48.6,-5.5,29.83,ESE,113,2.7,4.5,7,0.00,,,0.13,WUHU216HW,2013-04-13 22:42:00,
2013-04-13 18:47:00,48.4,-5.7,29.83,SSE,158,4.0,4.0,5,0.00,,,0.13,WUHU216HW,2013-04-13 22:47:00,
2013-04-13 18:52:00,48.2,-5.8,29.83,SE,135,3.6,4.0,3,0.00,,,0.13,WUHU216HW,2013-04-13 22:52:00,
2013-04-13 18:57:00,47.7,-6.2,29.83,ESE,113,4.3,5.4,1,0.00,,,0.13,WUHU216HW,2013-04-13 22:57:00,
2013-04-13 19:02:00,47.3,-6.5,29.83,SE,135,3.8,5.4,1,0.00,,,0.13,WUHU216HW,2013-04-13 23:02:00,
2013-04-13 19:07:00,47.0,-6.7,29.83,SE,135,3.8,4.3,1,0.00,,,0.13,WUHU216HW,2013-04-13 23:07:00,
2013-04-13 19:12:00,46.8,-6.9,29.83,East,90,3.8,3.8,1,0.00,,,0.13,WUHU216HW,2013-04-13 23:12:00,
2013-04-13 19:17:00,46.6,-7.0,29.83,ESE,113,1.3,3.8,1,0.00,,,0.13,WUHU216HW,2013-04-13 23:17:00,
2013-04-13 19:22:00,46.4,-7.2,29.83,SE,135,2.9,4.0,1,0.00,,,0.13,WUHU216HW,2013-04-13 23:22:00,
2013-04-13 19:27:00,46.1,-7.5,29.83,East,90,1.8,4.0,1,0.00,,,0.13,WUHU216HW,2013-04-13 23:27:00,
2013-04-13 19:32:00,46.1,-7.5,29.84,East,90,2.7,4.0,1,0.00,,,0.13,WUHU216HW,2013-04-13 23:32:00,
2013-04-13 19:37:00,45.7,-7.7,29.84,East,90,1.3,4.0,1,0.00,,,0.13,WUHU216HW,2013-04-13 23:37:00,
2013-04-13 19:42:00,45.7,-7.7,29.84,ESE,113,1.6,4.7,1,0.00,,,0.13,WUHU216HW,2013-04-13 23:42:00,
2013-04-13 19:47:00,45.5,-7.9,29.84,ESE,113,2.5,4.7,1,0.00,,,0.13,WUHU216HW,2013-04-13 23:47:00,
2013-04-13 19:52:00,45.4,-8.1,29.84,SE,135,2.5,3.1,1,0.00,,,0.13,WUHU216HW,2013-04-13 23:52:00,
2013-04-13 19:57:00,45.4,-8.1,29.84,SSE,158,2.5,3.4,1,0.00,,,0.13,WUHU216HW,2013-04-13 23:57:00,
2013-04-13 20:02:00,45.2,-8.2,29.85,ESE,113,1.3,3.4,1,0.00,,,0.13,WUHU216HW,2013-04-14 00:02:00,
2013-04-13 20:07:00,45.0,-8.4,29.85,ESE,113,1.6,2.9,1,0.00,,,0.13,WUHU216HW,2013-04-14 00:07:00,
2013-04-13 20:12:00,45.0,-8.4,29.85,East,90,0.9,2.2,1,0.00,,,0.13,WUHU216HW,2013-04-14 00:12:00,
2013-04-13 20:18:00,44.8,-8.4,29.85,NE,45,0.2,1.6,1,0.00,,,0.13,WUHU216HW,2013-04-14 00:18:00,
2013-04-13 20:23:00,44.6,-8.6,29.86,East,90,1.6,1.8,1,0.00,,,0.13,WUHU216HW,2013-04-14 00:23:00,
2013-04-13 20:28:00,44.6,-8.6,29.87,SE,135,1.1,2.2,1,0.00,,,0.13,WUHU216HW,2013-04-14 00:28:00,
2013-04-13 20:33:00,44.5,-8.8,29.87,ENE,68,1.3,2.2,1,0.00,,,0.13,WUHU216HW,2013-04-14 00:33:00,
2013-04-13 20:37:00,44.5,-8.8,29.86,East,90,1.3,1.3,1,0.00,,,0.13,WUHU216HW,2013-04-14 00:37:00,
2013-04-13 20:43:00,44.3,-8.9,29.87,ESE,113,1.3,1.3,1,0.00,,,0.13,WUHU216HW,2013-04-14 00:43:00,
2013-04-13 20:48:00,44.3,-8.9,29.87,SE,135,0.4,1.3,1,0.00,,,0.13,WUHU216HW,2013-04-14 00:48:00,
2013-04-13 20:53:00,44.1,-9.1,29.87,SE,135,0.0,1.3,1,0.00,,,0.13,WUHU216HW,2013-04-14 00:53:00,
2013-04-13 20:58:00,43.9,-9.2,29.87,East,90,0.4,0.4,1,0.00,,,0.13,WUHU216HW,2013-04-14 00:58:00,
2013-04-13 21:02:00,43.7,-9.4,29.87,East,90,1.1,1.1,1,0.00,,,0.13,WUHU216HW,2013-04-14 01:02:00,
2013-04-13 21:07:00,43.6,-9.5,29.87,SE,135,0.0,1.8,1,0.00,,,0.13,WUHU216HW,2013-04-14 01:07:00,
2013-04-13 21:12:00,43.6,-9.5,29.87,SE,135,0.2,1.8,1,0.00,,,0.13,WUHU216HW,2013-04-14 01:12:00,
2013-04-13 21:17:00,43.4,-9.6,29.87,East,90,0.4,1.1,1,0.00,,,0.13,WUHU216HW,2013-04-14 01:17:00,
2013-04-13 21:22:00,43.4,-9.6,29.87,East,90,0.4,1.1,1,0.00,,,0.13,WUHU216HW,2013-04-14 01:22:00,
2013-04-13 21:27:00,43.2,-9.8,29.87,East,90,1.3,1.3,1,0.00,,,0.13,WUHU216HW,2013-04-14 01:27:00,
2013-04-13 21:32:00,43.0,-9.9,29.87,SE,135,0.7,2.0,1,0.00,,,0.13,WUHU216HW,2013-04-14 01:32:00,
2013-04-13 21:37:00,43.0,-9.9,29.87,ESE,113,2.0,2.0,1,0.00,,,0.13,WUHU216HW,2013-04-14 01:37:00,
2013-04-13 21:42:00,42.8,-10.1,29.87,SE,135,0.0,2.0,1,0.00,,,0.13,WUHU216HW,2013-04-14 01:42:00,
2013-04-13 21:47:00,42.8,-10.1,29.87,ESE,113,1.8,2.0,1,0.00,,,0.13,WUHU216HW,2013-04-14 01:47:00,
2013-04-13 21:52:00,42.7,-10.2,29.86,SE,135,1.6,2.0,1,0.00,,,0.13,WUHU216HW,2013-04-14 01:52:00,
2013-04-13 21:57:00,42.7,-10.2,29.87,ESE,113,1.8,2.0,1,0.00,,,0.13,WUHU216HW,2013-04-14 01:57:00,
2013-04-13 22:02:00,42.7,-10.2,29.87,ESE,113,1.1,1.8,1,0.00,,,0.13,WUHU216HW,2013-04-14 02:02:00,
2013-04-13 22:07:00,42.5,-10.3,29.87,SE,135,0.9,1.8,1,0.00,,,0.13,WUHU216HW,2013-04-14 02:07:00,
2013-04-13 22:12:00,42.5,-10.3,29.87,SE,135,0.4,1.1,1,0.00,,,0.13,WUHU216HW,2013-04-14 02:12:00,
2013-04-13 22:17:00,42.3,-10.4,29.87,SE,135,0.4,1.1,1,0.00,,,0.13,WUHU216HW,2013-04-14 02:17:00,
2013-04-13 22:23:00,42.3,-10.4,29.87,ESE,113,1.1,1.6,1,0.00,,,0.13,WUHU216HW,2013-04-14 02:23:00,
2013-04-13 22:27:00,42.1,-10.6,29.88,West,270,2.0,2.0,1,0.00,,,0.13,WUHU216HW,2013-04-14 02:27:00,
2013-04-13 22:32:00,41.9,-10.7,29.88,South,180,0.2,2.0,1,0.00,,,0.13,WUHU216HW,2013-04-14 02:32:00,
2013-04-13 22:37:00,41.9,-10.7,29.88,South,180,0.0,2.0,1,0.00,,,0.13,WUHU216HW,2013-04-14 02:37:00,
2013-04-13 22:42:00,41.9,-10.7,29.88,South,180,0.0,0.2,1,0.00,,,0.13,WUHU216HW,2013-04-14 02:42:00,
2013-04-13 22:47:00,41.8,-10.8,29.88,South,180,0.0,0.7,1,0.00,,,0.13,WUHU216HW,2013-04-14 02:47:00,
2013-04-13 22:53:00,41.4,-11.1,29.87,South,180,0.0,0.7,1,0.00,,,0.13,WUHU216HW,2013-04-14 02:53:00,
2013-04-13 22:58:00,41.2,-11.2,29.88,South,180,0.4,0.7,1,0.00,,,0.13,WUHU216HW,2013-04-14 02:58:00,
2013-04-13 23:03:00,41.0,-11.3,29.88,South,180,0.0,0.4,1,0.00,,,0.13,WUHU216HW,2013-04-14 03:03:00,
2013-04-13 23:08:00,40.9,-11.5,29.88,South,180,0.0,0.4,1,0.00,,,0.13,WUHU216HW,2013-04-14 03:08:00,
2013-04-13 23:12:00,40.9,-11.5,29.88,South,180,0.0,0.0,1,0.00,,,0.13,WUHU216HW,2013-04-14 03:12:00,
2013-04-13 23:17:00,40.7,-11.6,29.88,South,180,0.0,0.0,1,0.00,,,0.13,WUHU216HW,2013-04-14 03:17:00,
2013-04-13 23:22:00,40.7,-11.6,29.88,South,180,0.0,0.0,1,0.00,,,0.13,WUHU216HW,2013-04-14 03:22:00,
2013-04-13 23:28:00,40.7,-11.6,29.88,South,180,0.0,0.0,1,0.00,,,0.13,WUHU216HW,2013-04-14 03:28:00,
2013-04-13 23:33:00,40.5,-11.8,29.88,South,180,0.0,0.0,1,0.00,,,0.13,WUHU216HW,2013-04-14 03:33:00,
2013-04-13 23:38:00,40.5,-11.8,29.88,South,180,0.0,0.0,1,0.00,,,0.13,WUHU216HW,2013-04-14 03:38:00,
2013-04-13 23:43:00,40.5,-11.8,29.89,South,180,0.0,0.0,1,0.00,,,0.13,WUHU216HW,2013-04-14 03:43:00,
2013-04-13 23:48:00,40.7,-11.6,29.89,WNW,293,0.4,0.9,1,0.00,,,0.13,WUHU216HW,2013-04-14 03:48:00,
2013-04-13 23:53:00,40.7,-11.6,29.89,NW,315,0.7,0.9,1,0.00,,,0.13,WUHU216HW,2013-04-14 03:53:00,
2013-04-13 23:58:00,40.9,-11.5,29.90,WNW,293,2.5,2.5,1,0.00,,,0.13,WUHU216HW,2013-04-14 03:58:00,